Time;durP1;ratioP1;P1;durP2;ratioP2;P2;SDS_P1;SDS_P2;PMS_P1;PMS_P2;Temp;Humidity;BMP_temperature;BMP_pressure;BME280_temperature;BME280_humidity;BME280_pressure;Samples;Min_cycle;Max_cycle;Signal;HPM_P1;HPM_P2
2021/12/08 00:02:30;;;;;;;105.93;34.87;;;-1.10;99.90;;;;;;10209878;29;20091;-88
2021/12/08 00:07:32;;;;;;;118.17;38.67;;;-1.20;99.90;;;;;;10209969;29;20468;-88
2021/12/08 00:17:52;;;;;;;124.60;39.53;;;-1.20;99.90;;;;;;10210358;29;20027;-87
2021/12/08 00:22:53;;;;;;;126.93;42.63;;;-1.20;99.90;;;;;;10209686;29;20036;-88
2021/12/08 00:27:54;;;;;;;95.67;33.53;;;-1.20;99.90;;;;;;10209549;29;20034;-88
2021/12/08 00:32:56;;;;;;;99.60;34.40;;;-1.30;99.90;;;;;;10195256;29;20082;-87
2021/12/08 00:37:58;;;;;;;101.80;34.97;;;-1.40;99.90;;;;;;10198021;29;20381;-88
2021/12/08 00:42:58;;;;;;;99.47;33.93;;;-1.40;99.90;;;;;;10170638;29;20058;-87
2021/12/08 00:48:01;;;;;;;117.47;40.30;;;-1.40;99.90;;;;;;10187961;29;20043;-89
2021/12/08 00:53:02;;;;;;;108.17;37.20;;;-1.40;99.90;;;;;;10180944;29;20094;-88
2021/12/08 00:58:04;;;;;;;120.17;39.33;;;-1.40;99.90;;;;;;10194982;29;20038;-86
2021/12/08 01:03:05;;;;;;;116.57;38.87;;;-1.40;99.90;;;;;;10202683;29;20024;-88
2021/12/08 01:08:07;;;;;;;112.37;37.50;;;-1.40;99.90;;;;;;10187442;29;20040;-86
2021/12/08 01:13:11;;;;;;;134.20;43.23;;;-1.30;99.90;;;;;;10197883;29;20039;-87
2021/12/08 01:18:12;;;;;;;110.97;36.83;;;-1.30;99.90;;;;;;10208033;29;20027;-87
2021/12/08 01:23:13;;;;;;;106.50;36.03;;;-1.30;99.90;;;;;;10207010;29;20035;-88
2021/12/08 01:28:18;;;;;;;102.70;36.70;;;-1.30;99.90;;;;;;10205713;29;20050;-87
2021/12/08 01:33:20;;;;;;;108.87;35.63;;;-1.30;99.90;;;;;;10194493;29;20178;-88
2021/12/08 01:38:22;;;;;;;125.07;39.43;;;-1.30;99.90;;;;;;10177353;29;20590;-87
2021/12/08 01:43:28;;;;;;;120.93;39.30;;;-1.40;99.90;;;;;;10172101;29;20523;-87
2021/12/08 01:48:33;;;;;;;197.73;57.13;;;-1.50;99.90;;;;;;10187033;29;20035;-87
2021/12/08 01:53:33;;;;;;;151.73;46.87;;;-1.50;99.90;;;;;;10207028;29;20047;-87
2021/12/08 01:58:34;;;;;;;135.30;42.60;;;-1.50;99.90;;;;;;10185144;29;20023;-87
2021/12/08 02:03:36;;;;;;;111.33;37.97;;;-1.40;99.90;;;;;;10206564;29;20042;-89
2021/12/08 02:08:39;;;;;;;108.73;34.10;;;-1.40;99.90;;;;;;10206370;29;20075;-88
2021/12/08 02:13:40;;;;;;;114.67;33.47;;;-1.40;99.90;;;;;;10199362;29;20036;-88
2021/12/08 02:18:44;;;;;;;119.13;33.57;;;-1.40;99.90;;;;;;10214568;29;20151;-88
2021/12/08 02:23:45;;;;;;;107.40;34.47;;;-1.50;99.90;;;;;;10214179;29;20520;-90
2021/12/08 02:28:46;;;;;;;91.80;30.30;;;-1.60;99.90;;;;;;10214206;29;20035;-86
2021/12/08 02:49:45;;;;;;;120.03;36.50;;;-1.50;99.90;;;;;;10178377;29;20052;-87
2021/12/08 02:54:49;;;;;;;103.50;33.67;;;-1.60;99.90;;;;;;10211625;29;20047;-89
2021/12/08 02:59:50;;;;;;;87.60;28.27;;;-1.50;99.90;;;;;;10210976;29;20136;-89
2021/12/08 03:04:51;;;;;;;84.13;27.73;;;-1.50;99.90;;;;;;10210990;29;20031;-88
2021/12/08 03:09:52;;;;;;;73.57;24.17;;;-1.50;99.90;;;;;;10206242;29;20048;-89
2021/12/08 03:14:52;;;;;;;69.07;23.70;;;-1.60;99.90;;;;;;10177124;29;20045;-86
2021/12/08 03:19:53;;;;;;;89.63;27.67;;;-1.60;99.90;;;;;;10211283;29;20043;-87
2021/12/08 03:24:54;;;;;;;82.70;29.20;;;-1.60;99.90;;;;;;10210907;29;20091;-88
2021/12/08 03:29:59;;;;;;;75.97;25.80;;;-1.60;99.90;;;;;;10196798;29;20044;-89
2021/12/08 03:35:00;;;;;;;59.40;20.43;;;-1.70;99.90;;;;;;10210695;29;20066;-88
2021/12/08 03:40:08;;;;;;;71.60;27.20;;;-1.70;99.90;;;;;;10211652;29;20046;-89
2021/12/08 03:45:16;;;;;;;67.30;21.60;;;-1.80;99.90;;;;;;10209949;29;20073;-88
2021/12/08 03:50:18;;;;;;;62.27;21.47;;;-1.90;99.90;;;;;;10210448;29;20044;-87
2021/12/08 03:55:19;;;;;;;67.83;24.00;;;-1.90;99.90;;;;;;10212277;29;20082;-87
2021/12/08 04:00:23;;;;;;;60.80;21.27;;;-2.00;99.90;;;;;;10210704;29;20487;-86
2021/12/08 04:05:39;;;;;;;66.27;19.53;;;-2.10;99.90;;;;;;10195733;29;20079;-86
2021/12/08 04:10:40;;;;;;;64.67;21.63;;;-2.10;99.90;;;;;;10203625;29;20063;-90
2021/12/08 04:15:41;;;;;;;61.73;22.37;;;-2.10;99.90;;;;;;10208027;29;20067;-91
2021/12/08 04:20:48;;;;;;;61.93;20.50;;;-2.10;99.90;;;;;;10192960;29;20461;-87
2021/12/08 04:25:52;;;;;;;59.97;21.03;;;-2.10;99.90;;;;;;10188591;29;20440;-86
2021/12/08 04:31:20;;;;;;;69.33;24.53;;;-2.10;99.90;;;;;;10223680;29;20039;-86
2021/12/08 04:36:23;;;;;;;86.30;30.57;;;-2.10;99.90;;;;;;10196934;29;20045;-87
2021/12/08 04:41:34;;;;;;;69.30;22.00;;;-2.10;99.90;;;;;;10209478;29;20031;-87
2021/12/08 04:52:21;;;;;;;137.63;60.07;;;-2.20;99.90;;;;;;10209801;29;20047;-84
2021/12/08 05:08:00;;;;;;;65.70;25.40;;;-2.40;99.90;;;;;;10209022;29;20067;-85
2021/12/08 05:13:06;;;;;;;63.43;25.60;;;-2.50;99.90;;;;;;10200438;29;20024;-87
2021/12/08 05:18:06;;;;;;;61.95;21.15;;;-2.50;99.90;;;;;;10199359;29;20446;-86
2021/12/08 05:23:11;;;;;;;92.63;28.33;;;-2.50;99.90;;;;;;10209181;29;20031;-86
2021/12/08 05:28:16;;;;;;;80.63;26.52;;;-2.70;99.90;;;;;;10206436;29;20039;-86
2021/12/08 05:33:17;;;;;;;68.43;24.33;;;-2.70;99.90;;;;;;10202827;29;20031;-87
2021/12/08 05:38:18;;;;;;;70.20;27.07;;;-2.60;99.90;;;;;;10188439;29;20036;-87
2021/12/08 05:43:19;;;;;;;81.27;30.37;;;-2.60;99.90;;;;;;10205932;29;20111;-87
2021/12/08 05:48:20;;;;;;;75.30;27.73;;;-2.60;99.90;;;;;;10183590;29;20391;-88
2021/12/08 05:53:22;;;;;;;69.17;25.60;;;-2.60;99.90;;;;;;10184045;29;20119;-87
2021/12/08 05:58:25;;;;;;;59.13;21.07;;;-2.60;99.90;;;;;;10205670;29;20058;-87
2021/12/08 06:03:26;;;;;;;61.67;23.70;;;-2.60;99.90;;;;;;10193233;29;20036;-88
2021/12/08 06:08:28;;;;;;;51.73;17.90;;;-2.60;99.90;;;;;;10207209;29;20428;-88
2021/12/08 06:13:29;;;;;;;57.37;21.17;;;-2.70;99.90;;;;;;10207339;29;20023;-87
2021/12/08 06:18:36;;;;;;;50.30;17.10;;;-2.70;99.90;;;;;;10206813;29;20400;-88
2021/12/08 06:23:38;;;;;;;54.07;16.97;;;-2.70;99.90;;;;;;10207527;29;20028;-87
2021/12/08 06:28:39;;;;;;;48.53;16.50;;;-2.80;99.90;;;;;;10207344;29;20106;-89
2021/12/08 06:33:40;;;;;;;56.50;19.20;;;-2.80;99.90;;;;;;10207502;29;20078;-89
2021/12/08 06:38:42;;;;;;;68.40;24.10;;;-2.80;99.90;;;;;;10205292;29;20028;-86
2021/12/08 06:43:47;;;;;;;81.83;28.63;;;-2.80;99.90;;;;;;10206821;29;20585;-88
2021/12/08 06:48:52;;;;;;;79.28;25.80;;;-2.70;99.90;;;;;;10205403;29;20039;-88
2021/12/08 06:53:57;;;;;;;61.58;22.23;;;-2.70;99.90;;;;;;10207393;29;20044;-89
2021/12/08 06:59:04;;;;;;;78.30;28.03;;;-2.80;99.90;;;;;;10212775;29;20115;-87
2021/12/08 07:09:28;;;;;;;90.60;31.67;;;-2.70;99.90;;;;;;10213233;29;20083;-87
2021/12/08 07:14:31;;;;;;;101.87;33.07;;;-2.70;99.90;;;;;;10213868;29;20054;-87
2021/12/08 07:19:51;;;;;;;124.17;46.77;;;-2.80;99.90;;;;;;10211815;29;20486;-87
2021/12/08 07:24:53;;;;;;;69.03;27.20;;;-2.80;99.90;;;;;;10212470;29;20387;-87
2021/12/08 07:29:59;;;;;;;92.90;34.20;;;-2.70;99.90;;;;;;10212250;29;20549;-87
2021/12/08 07:35:03;;;;;;;273.77;95.93;;;-2.70;99.90;;;;;;10211921;29;20019;-89
2021/12/08 07:40:26;;;;;;;92.53;43.10;;;-2.70;99.90;;;;;;10212495;29;20027;-86
2021/12/08 07:45:36;;;;;;;131.40;53.03;;;-2.60;99.90;;;;;;10211772;29;20444;-87
2021/12/08 07:50:42;;;;;;;133.53;52.50;;;-2.60;99.90;;;;;;10211828;29;20119;-87
2021/12/08 07:55:47;;;;;;;93.20;33.37;;;-2.60;99.90;;;;;;10210088;29;20445;-86
2021/12/08 08:00:53;;;;;;;89.25;30.70;;;-2.50;99.90;;;;;;10211682;29;20075;-88
2021/12/08 08:05:56;;;;;;;80.10;29.85;;;-2.60;99.90;;;;;;10210856;29;20095;-87
2021/12/08 08:11:11;;;;;;;83.20;32.60;;;-2.60;99.90;;;;;;10211172;29;20023;-86
2021/12/08 08:16:15;;;;;;;138.97;45.27;;;-2.60;99.90;;;;;;10211028;29;20019;-87
2021/12/08 08:21:19;;;;;;;88.67;29.50;;;-2.40;99.90;;;;;;10210363;29;20028;-87
2021/12/08 08:26:21;;;;;;;82.57;29.03;;;-2.40;99.90;;;;;;10210470;29;20016;-87
2021/12/08 08:31:35;;;;;;;115.47;36.97;;;-2.30;99.90;;;;;;10210720;29;20035;-86
2021/12/08 08:36:43;;;;;;;112.70;41.43;;;-2.30;99.90;;;;;;10208820;29;20023;-87
2021/12/08 08:42:08;;;;;;;119.33;40.07;;;-2.20;99.90;;;;;;10209804;29;20019;-87
2021/12/08 08:47:15;;;;;;;88.33;34.40;;;-2.10;99.90;;;;;;10210022;29;20532;-87
2021/12/08 08:52:30;;;;;;;136.23;42.50;;;-2.10;99.90;;;;;;10209338;29;20192;-87
2021/12/08 08:57:35;;;;;;;103.30;33.88;;;-2.00;99.90;;;;;;10209714;29;20479;-87
2021/12/08 09:02:40;;;;;;;145.18;51.17;;;-1.90;99.90;;;;;;10208004;29;20031;-90
2021/12/08 09:07:43;;;;;;;161.37;57.97;;;-1.80;99.90;;;;;;10208947;29;20020;-87
2021/12/08 09:12:50;;;;;;;174.90;62.80;;;-1.70;99.90;;;;;;10208423;29;20479;-87
2021/12/08 09:17:56;;;;;;;148.60;51.57;;;-1.60;99.90;;;;;;10206647;29;20031;-87
2021/12/08 09:23:10;;;;;;;126.35;46.33;;;-1.60;99.90;;;;;;10208759;29;20035;-88
2021/12/08 09:28:15;;;;;;;153.30;48.43;;;-1.60;99.90;;;;;;10208107;29;20036;-87
2021/12/08 09:33:25;;;;;;;111.13;38.00;;;-1.70;99.90;;;;;;10208796;29;20384;-87
2021/12/08 09:38:35;;;;;;;112.33;37.07;;;-1.60;99.90;;;;;;10207159;29;20098;-88
2021/12/08 09:43:49;;;;;;;83.80;29.47;;;-1.70;99.90;;;;;;10208005;29;20051;-88
2021/12/08 09:48:50;;;;;;;79.17;25.43;;;-1.70;99.90;;;;;;10207582;29;20050;-87
2021/12/08 09:53:52;;;;;;;89.93;30.93;;;-1.80;99.90;;;;;;10207803;29;20075;-86
2021/12/08 09:58:55;;;;;;;87.80;28.93;;;-1.80;99.90;;;;;;10207267;29;20059;-85
2021/12/08 10:03:56;;;;;;;100.50;33.23;;;-1.70;99.90;;;;;;10207229;29;20038;-89
2021/12/08 10:08:58;;;;;;;87.17;30.73;;;-1.60;99.90;;;;;;10207547;29;20360;-87
2021/12/08 10:14:01;;;;;;;109.53;38.27;;;-1.50;99.90;;;;;;10207649;29;20043;-87
2021/12/08 10:19:03;;;;;;;71.07;27.23;;;-1.50;99.90;;;;;;10205823;29;20771;-89
2021/12/08 10:24:20;;;;;;;170.50;56.60;;;-1.50;99.90;;;;;;10207001;29;20048;-87
2021/12/08 10:29:29;;;;;;;82.90;31.03;;;-1.50;99.90;;;;;;10207910;29;20106;-87
2021/12/08 10:34:42;;;;;;;93.13;30.40;;;-1.50;99.90;;;;;;10213616;29;20016;-88
2021/12/08 10:39:47;;;;;;;93.67;33.67;;;-1.40;99.90;;;;;;10213670;29;20030;-87
2021/12/08 10:44:56;;;;;;;91.60;32.60;;;-1.40;99.90;;;;;;10212717;29;20023;-86
2021/12/08 10:55:05;;;;;;;69.93;23.95;;;-1.20;99.90;;;;;;10214033;29;20048;-87
2021/12/08 11:00:17;;;;;;;81.63;27.77;;;-1.20;99.90;;;;;;10212230;29;20099;-86
2021/12/08 11:05:24;;;;;;;81.33;29.70;;;-1.20;99.90;;;;;;10212349;29;20041;-88
2021/12/08 11:10:26;;;;;;;93.53;32.83;;;-1.20;99.90;;;;;;10212254;29;20036;-87
2021/12/08 11:15:28;;;;;;;81.10;28.93;;;-1.30;99.90;;;;;;10213016;29;20098;-87
2021/12/08 11:20:32;;;;;;;62.23;23.30;;;-1.30;99.90;;;;;;10213470;29;20036;-87
2021/12/08 11:25:47;;;;;;;102.63;37.93;;;-1.20;99.90;;;;;;10212682;29;20066;-90
2021/12/08 11:30:48;;;;;;;94.20;37.93;;;-1.20;99.90;;;;;;10212485;29;20095;-87
2021/12/08 11:36:06;;;;;;;102.00;38.03;;;-1.20;99.90;;;;;;10212854;29;20467;-88
2021/12/08 11:41:25;;;;;;;96.97;34.83;;;-1.20;99.90;;;;;;10211303;29;20027;-91
2021/12/08 11:46:26;;;;;;;128.83;45.33;;;-1.30;99.90;;;;;;10212499;29;20357;-89
2021/12/08 11:51:27;;;;;;;105.60;36.80;;;-1.30;99.90;;;;;;10210303;29;20467;-87
2021/12/08 11:56:39;;;;;;;105.47;37.27;;;-1.40;99.90;;;;;;10212010;29;20061;-87
2021/12/08 12:01:41;;;;;;;114.07;37.80;;;-1.40;99.90;;;;;;10211914;29;20039;-88
2021/12/08 12:06:41;;;;;;;105.97;33.70;;;-1.40;99.90;;;;;;10209921;29;20055;-87
2021/12/08 12:11:42;;;;;;;81.03;29.23;;;-1.40;99.90;;;;;;10211408;29;20511;-87
2021/12/08 12:16:44;;;;;;;98.20;34.73;;;-1.40;99.90;;;;;;10210888;29;20028;-86
2021/12/08 12:21:56;;;;;;;85.03;30.00;;;-1.40;99.90;;;;;;10209568;29;20055;-87
2021/12/08 12:27:40;;;;;;;71.00;24.90;;;-1.40;99.90;;;;;;10210718;29;20030;-88
2021/12/08 12:32:50;;;;;;;85.40;31.97;;;-1.50;99.90;;;;;;10209555;29;20443;-87
2021/12/08 12:38:04;;;;;;;74.33;29.07;;;-1.60;99.90;;;;;;10210700;29;20112;-87
2021/12/08 12:43:06;;;;;;;105.77;38.00;;;-1.50;99.90;;;;;;10209873;29;20031;-87
2021/12/08 12:48:20;;;;;;;70.10;25.23;;;-1.60;99.90;;;;;;10208394;29;20133;-87
2021/12/08 12:53:44;;;;;;;72.90;27.27;;;-1.60;99.90;;;;;;10208317;29;20031;-86
2021/12/08 12:58:56;;;;;;;126.57;52.87;;;-1.60;99.90;;;;;;10209396;29;20024;-87
2021/12/08 13:04:03;;;;;;;91.57;37.50;;;-1.60;99.90;;;;;;10209122;29;20046;-89
2021/12/08 13:09:05;;;;;;;81.13;31.33;;;-1.60;99.90;;;;;;10207879;29;20122;-87
2021/12/08 13:14:19;;;;;;;73.63;26.17;;;-1.70;99.90;;;;;;10207807;29;20030;-88
2021/12/08 13:19:38;;;;;;;76.00;28.00;;;-1.70;99.90;;;;;;10197574;29;20392;-87
2021/12/08 13:24:43;;;;;;;79.57;30.50;;;-1.70;99.90;;;;;;10170519;29;20508;-86
2021/12/08 13:29:46;;;;;;;80.23;28.73;;;-1.70;99.90;;;;;;10196626;29;20040;-87
2021/12/08 13:34:57;;;;;;;99.17;37.90;;;-1.70;99.90;;;;;;10206626;29;20114;-87
2021/12/08 13:40:18;;;;;;;84.77;28.77;;;-1.70;99.90;;;;;;10206208;29;20026;-90
2021/12/08 13:45:19;;;;;;;89.07;36.90;;;-1.80;99.90;;;;;;10206716;29;20032;-89
2021/12/08 13:50:25;;;;;;;149.77;72.10;;;-1.80;99.90;;;;;;10206536;29;20039;-86
2021/12/08 13:55:28;;;;;;;142.38;61.55;;;-1.90;99.90;;;;;;10201044;29;20048;-89
2021/12/08 14:00:40;;;;;;;112.30;42.50;;;-1.90;99.90;;;;;;10197264;29;20032;-91
2021/12/08 14:05:59;;;;;;;118.00;41.43;;;-1.90;99.90;;;;;;10210531;29;20036;-89
2021/12/08 14:11:10;;;;;;;216.47;92.13;;;-1.90;99.90;;;;;;10210412;29;20040;-88
2021/12/08 14:16:14;;;;;;;131.17;48.90;;;-2.00;99.90;;;;;;10201650;29;20031;-89
2021/12/08 14:21:21;;;;;;;98.40;37.20;;;-2.00;99.90;;;;;;10201916;29;20031;-87
2021/12/08 14:26:28;;;;;;;85.17;31.73;;;-2.00;99.90;;;;;;10215116;29;20047;-89
2021/12/08 14:31:39;;;;;;;127.17;45.10;;;-2.00;99.90;;;;;;10205115;29;20044;-89
2021/12/08 14:36:52;;;;;;;146.17;54.53;;;-2.10;99.90;;;;;;10190610;29;20036;-88
2021/12/08 14:41:55;;;;;;;110.77;43.40;;;-2.10;99.90;;;;;;10209484;29;20028;-88
2021/12/08 14:47:08;;;;;;;198.60;66.57;;;-2.20;99.90;;;;;;10203834;29;20020;-89
2021/12/08 14:52:14;;;;;;;133.67;45.97;;;-2.20;99.90;;;;;;10212798;29;20387;-89
2021/12/08 14:57:20;;;;;;;;;;;-2.20;99.90;;;;;;10208409;29;20071;-91
2021/12/08 15:02:32;;;;;;;;;;;-2.30;99.90;;;;;;10213602;29;19902;-89
2021/12/08 15:07:33;;;;;;;121.13;45.63;;;-2.20;99.90;;;;;;10211100;29;20322;-88
2021/12/08 15:12:36;;;;;;;107.33;39.10;;;-2.20;99.90;;;;;;10208508;29;20034;-91
2021/12/08 15:17:37;;;;;;;174.40;68.70;;;-2.30;99.90;;;;;;10203308;29;20044;-90
2021/12/08 15:22:46;;;;;;;135.63;49.40;;;-2.40;99.90;;;;;;10211609;29;20031;-91
2021/12/08 15:27:55;;;;;;;78.53;27.63;;;-2.40;99.90;;;;;;10210813;29;20032;-88
2021/12/08 15:33:07;;;;;;;97.93;34.77;;;-2.40;99.90;;;;;;10208443;29;20431;-88
2021/12/08 15:38:10;;;;;;;351.97;158.07;;;-2.50;99.90;;;;;;10212418;29;20052;-86
2021/12/08 15:43:13;;;;;;;166.77;67.07;;;-2.50;99.90;;;;;;10205683;29;20042;-87
2021/12/08 15:48:17;;;;;;;647.43;325.63;;;-2.60;99.90;;;;;;10209055;29;20102;-87
2021/12/08 15:53:21;;;;;;;156.63;58.00;;;-2.60;99.90;;;;;;10207461;29;20036;-85
2021/12/08 15:58:23;;;;;;;164.77;61.90;;;-2.70;99.90;;;;;;10227154;29;20086;-87
2021/12/08 16:03:44;;;;;;;304.43;94.10;;;-2.70;99.90;;;;;;10211602;29;20049;-87
2021/12/08 16:08:46;;;;;;;232.90;98.97;;;-2.70;99.90;;;;;;10189007;29;20495;-92
2021/12/08 16:13:47;;;;;;;151.87;52.73;;;-2.70;99.90;;;;;;10204653;29;20076;-86
2021/12/08 16:18:47;;;;;;;163.70;58.20;;;-2.70;99.90;;;;;;10201418;29;20091;-90
2021/12/08 16:23:48;;;;;;;85.70;37.60;;;-2.70;99.90;;;;;;10200980;29;20371;-88
2021/12/08 16:28:49;;;;;;;142.20;52.33;;;-2.70;99.90;;;;;;10209100;29;20043;-89
2021/12/08 16:33:51;;;;;;;101.17;35.73;;;-2.70;99.90;;;;;;10208293;29;20027;-87
2021/12/08 16:38:51;;;;;;;85.40;31.33;;;-2.70;99.90;;;;;;10208681;29;20484;-87
2021/12/08 16:43:52;;;;;;;107.20;37.77;;;-2.70;99.90;;;;;;10207584;29;20044;-84
2021/12/08 16:48:54;;;;;;;134.77;45.37;;;-2.80;99.90;;;;;;10208190;29;20368;-83
2021/12/08 16:53:55;;;;;;;169.70;57.90;;;-2.80;99.90;;;;;;10205507;29;20044;-84
2021/12/08 16:58:56;;;;;;;78.30;29.87;;;-2.80;99.90;;;;;;10201064;29;20028;-87
2021/12/08 17:03:58;;;;;;;74.17;28.23;;;-2.80;99.90;;;;;;10203898;29;20027;-83
2021/12/08 17:08:59;;;;;;;95.40;34.07;;;-2.90;99.90;;;;;;10195103;29;20056;-83
2021/12/08 17:14:00;;;;;;;110.63;44.87;;;-3.00;99.90;;;;;;10192208;29;20581;-83
2021/12/08 17:19:02;;;;;;;100.57;38.83;;;-2.90;99.90;;;;;;10206832;29;20035;-85
2021/12/08 17:24:03;;;;;;;93.40;34.00;;;-3.00;99.90;;;;;;10190069;29;20075;-84
2021/12/08 17:29:07;;;;;;;97.57;34.03;;;-3.00;99.90;;;;;;10209582;29;20043;-86
2021/12/08 17:34:08;;;;;;;117.00;44.93;;;-3.00;99.90;;;;;;10207496;29;20049;-85
2021/12/08 17:39:09;;;;;;;110.37;42.27;;;-3.00;99.90;;;;;;10199883;29;20034;-85
2021/12/08 17:44:09;;;;;;;81.83;30.97;;;-3.00;99.90;;;;;;10207311;29;20023;-82
2021/12/08 17:49:10;;;;;;;136.40;48.33;;;-3.00;99.90;;;;;;10209863;29;20032;-88
2021/12/08 17:54:11;;;;;;;106.13;38.67;;;-3.00;99.90;;;;;;10190147;29;20043;-86
2021/12/08 17:59:12;;;;;;;104.77;41.43;;;-3.00;99.90;;;;;;10194053;29;20024;-86
2021/12/08 18:04:13;;;;;;;140.17;52.60;;;-3.00;99.90;;;;;;10179944;29;20033;-86
2021/12/08 18:09:16;;;;;;;154.67;56.27;;;-3.00;99.90;;;;;;10188356;29;20555;-87
2021/12/08 18:14:17;;;;;;;197.30;72.30;;;-3.00;99.90;;;;;;10194094;29;20016;-86
2021/12/08 18:19:18;;;;;;;157.67;55.77;;;-2.90;99.90;;;;;;10198819;29;21032;-86
2021/12/08 18:24:19;;;;;;;112.97;43.63;;;-3.00;99.90;;;;;;10169829;29;20056;-87
2021/12/08 18:29:21;;;;;;;129.30;49.20;;;-3.00;99.90;;;;;;10205596;29;20588;-86
2021/12/08 18:34:22;;;;;;;98.27;37.43;;;-3.00;99.90;;;;;;10202861;29;20027;-87
2021/12/08 18:39:28;;;;;;;131.57;51.20;;;-3.00;99.90;;;;;;10200865;29;20031;-87
2021/12/08 18:44:32;;;;;;;131.33;50.63;;;-3.00;99.90;;;;;;10183655;29;20393;-90
2021/12/08 18:49:33;;;;;;;145.03;56.73;;;-3.00;99.90;;;;;;10199217;29;20106;-85
2021/12/08 18:54:34;;;;;;;169.03;63.83;;;-3.00;99.90;;;;;;10208290;29;20058;-86
2021/12/08 18:59:37;;;;;;;123.07;46.50;;;-3.00;99.90;;;;;;10210779;29;20039;-85
2021/12/08 19:04:38;;;;;;;128.47;46.60;;;-3.00;99.90;;;;;;10192722;29;20035;-85
2021/12/08 19:09:39;;;;;;;135.93;46.13;;;-3.10;99.90;;;;;;10202841;29;20075;-85
2021/12/08 19:14:40;;;;;;;149.50;46.03;;;-3.10;99.90;;;;;;10213211;29;20114;-85
2021/12/08 19:19:42;;;;;;;231.63;75.93;;;-3.20;99.90;;;;;;10199142;29;20019;-84
2021/12/08 19:24:45;;;;;;;227.07;67.77;;;-3.10;99.90;;;;;;10214625;29;20031;-86
2021/12/08 19:29:46;;;;;;;287.77;86.73;;;-3.20;99.90;;;;;;10208058;29;20035;-83
2021/12/08 19:34:47;;;;;;;286.30;83.63;;;-3.20;99.90;;;;;;10202383;29;20337;-85
2021/12/08 19:39:48;;;;;;;172.33;59.87;;;-3.20;99.90;;;;;;10207501;29;20043;-86
2021/12/08 19:50:52;;;;;;;227.67;76.03;;;-3.30;99.90;;;;;;10190386;29;20395;-84
2021/12/08 19:55:52;;;;;;;165.13;59.23;;;-3.30;99.90;;;;;;10204601;29;20567;-84
2021/12/08 20:00:56;;;;;;;221.20;68.43;;;-3.20;99.90;;;;;;10202328;29;20028;-84
2021/12/08 20:05:57;;;;;;;208.80;68.90;;;-3.20;99.90;;;;;;10204156;29;20028;-85
2021/12/08 20:10:58;;;;;;;154.87;50.93;;;-3.20;99.90;;;;;;10205886;29;20043;-84
2021/12/08 20:15:59;;;;;;;117.07;45.93;;;-3.10;99.90;;;;;;10209441;29;20527;-85
2021/12/08 20:21:04;;;;;;;135.77;49.27;;;-3.20;99.90;;;;;;10201967;29;20030;-86
2021/12/08 20:26:08;;;;;;;135.90;45.70;;;-3.20;99.90;;;;;;10182772;29;20044;-86
2021/12/08 20:31:13;;;;;;;107.50;42.30;;;-3.20;99.90;;;;;;10206889;29;20032;-85
2021/12/08 20:36:15;;;;;;;111.23;44.83;;;-3.20;99.90;;;;;;10200751;29;20032;-85
2021/12/08 20:41:17;;;;;;;101.50;38.10;;;-3.20;99.90;;;;;;10201193;29;20039;-86
2021/12/08 20:46:19;;;;;;;158.47;51.97;;;-3.20;99.90;;;;;;10204752;29;20102;-86
2021/12/08 20:51:21;;;;;;;168.93;59.67;;;-3.20;99.90;;;;;;10208198;29;20040;-88
2021/12/08 20:56:25;;;;;;;120.43;43.50;;;-3.10;99.90;;;;;;10207844;29;20051;-87
2021/12/08 21:01:35;;;;;;;136.77;46.20;;;-3.10;99.90;;;;;;10205103;29;20043;-85
2021/12/08 21:06:37;;;;;;;210.83;78.67;;;-3.10;99.90;;;;;;10206138;29;20032;-86
2021/12/08 21:11:40;;;;;;;164.27;56.57;;;-3.20;99.90;;;;;;10204295;29;20045;-86
2021/12/08 21:16:41;;;;;;;235.30;78.77;;;-3.20;99.90;;;;;;10204218;29;20118;-86
2021/12/08 21:21:42;;;;;;;271.17;82.37;;;-3.20;99.90;;;;;;10200369;29;20032;-86
2021/12/08 21:27:33;;;;;;;234.43;75.23;;;-3.10;99.90;;;;;;10207354;29;20471;-86
2021/12/08 21:32:35;;;;;;;225.87;69.50;;;-3.10;99.90;;;;;;10196417;29;20063;-86
2021/12/08 21:37:36;;;;;;;209.17;64.60;;;-3.20;99.90;;;;;;10204538;29;20035;-84
2021/12/08 21:42:36;;;;;;;133.87;48.13;;;-3.20;99.90;;;;;;10206254;29;20468;-86
2021/12/08 21:47:37;;;;;;;146.17;50.83;;;-3.20;99.90;;;;;;10196878;29;20027;-86
2021/12/08 21:52:39;;;;;;;200.97;61.37;;;-3.20;99.90;;;;;;10202228;29;20028;-86
2021/12/08 21:57:40;;;;;;;274.67;82.80;;;-3.10;99.90;;;;;;10203724;29;20456;-85
2021/12/08 22:02:42;;;;;;;417.57;121.20;;;-3.10;99.90;;;;;;10193328;29;20020;-86
2021/12/08 22:07:44;;;;;;;290.23;95.73;;;-3.00;99.90;;;;;;10198341;29;20024;-87
2021/12/08 22:12:46;;;;;;;251.63;86.90;;;-3.00;99.90;;;;;;10188039;29;20387;-87
2021/12/08 22:17:47;;;;;;;307.03;87.23;;;-2.90;99.90;;;;;;10201661;29;20110;-86
2021/12/08 22:22:49;;;;;;;172.40;57.97;;;-2.90;99.90;;;;;;10205627;29;20074;-86
2021/12/08 22:27:49;;;;;;;122.57;45.80;;;-2.90;99.90;;;;;;10212608;29;20042;-87
2021/12/08 22:32:51;;;;;;;111.10;41.03;;;-2.90;99.90;;;;;;10212684;29;20494;-86
2021/12/08 22:37:52;;;;;;;108.73;39.27;;;-2.80;99.90;;;;;;10210318;29;20027;-88
2021/12/08 22:42:54;;;;;;;200.10;61.27;;;-2.80;99.90;;;;;;10185873;29;20084;-87
2021/12/08 22:47:55;;;;;;;148.53;51.30;;;-2.80;99.90;;;;;;10195959;29;20032;-87
2021/12/08 22:52:56;;;;;;;85.10;33.30;;;-2.80;99.90;;;;;;10214318;29;20028;-87
2021/12/08 22:57:57;;;;;;;93.40;33.53;;;-2.80;99.90;;;;;;10211255;29;20404;-87
2021/12/08 23:02:58;;;;;;;78.43;29.53;;;-2.80;99.90;;;;;;10212154;29;20534;-87
2021/12/08 23:08:01;;;;;;;79.60;30.37;;;-2.80;99.90;;;;;;10201091;29;20515;-87
2021/12/08 23:13:05;;;;;;;108.83;42.67;;;-2.80;99.90;;;;;;10189010;29;20020;-87
2021/12/08 23:18:06;;;;;;;133.30;47.60;;;-2.80;99.90;;;;;;10213133;29;20054;-87
2021/12/08 23:23:06;;;;;;;249.50;90.57;;;-2.80;99.90;;;;;;10202219;29;20035;-87
2021/12/08 23:28:07;;;;;;;139.57;47.57;;;-2.80;99.90;;;;;;10213236;29;20032;-88
2021/12/08 23:33:09;;;;;;;94.57;35.53;;;-2.80;99.90;;;;;;10210746;29;20034;-87
2021/12/08 23:38:22;;;;;;;96.77;34.57;;;-2.80;99.90;;;;;;10204158;29;20024;-87
2021/12/08 23:43:22;;;;;;;105.63;40.57;;;-2.80;99.90;;;;;;10211461;29;20530;-88
2021/12/08 23:48:23;;;;;;;118.07;42.70;;;-2.70;99.90;;;;;;10210273;29;20285;-87
2021/12/08 23:53:24;;;;;;;90.97;36.83;;;-2.80;99.90;;;;;;10208869;29;20040;-87
2021/12/08 23:58:31;;;;;;;97.40;37.70;;;-2.80;99.90;;;;;;10210560;29;20023;-88
